Time;durP1;ratioP1;P1;durP2;ratioP2;P2;SDS_P1;SDS_P2;PMS_P1;PMS_P2;Temp;Humidity;BMP_temperature;BMP_pressure;BME280_temperature;BME280_humidity;BME280_pressure;Samples;Min_cycle;Max_cycle;Signal;HPM_P1;HPM_P2
2023/07/12 00:01:19;;;;;;;3.35;1.92;;;;;;;23.25;54.01;100784.88;4940932;28;123026;-83
2023/07/12 00:03:49;;;;;;;4.18;2.25;;;;;;;23.25;53.94;100778.63;4957731;28;113995;-84
2023/07/12 00:06:19;;;;;;;3.17;2.00;;;;;;;23.21;54.28;100777.22;4936216;28;114977;-83
2023/07/12 00:08:47;;;;;;;3.15;1.88;;;;;;;23.22;54.22;100781.63;4939769;28;123808;-83
2023/07/12 00:11:21;;;;;;;3.38;1.90;;;;;;;23.22;54.52;100778.91;4944937;28;124258;-84
2023/07/12 00:13:50;;;;;;;2.67;1.83;;;;;;;23.21;54.37;100777.22;4939269;28;113441;-84
2023/07/12 00:16:25;;;;;;;4.28;2.17;;;;;;;23.19;54.56;100768.41;4958299;28;113653;-83
2023/07/12 00:18:53;;;;;;;;;;;;;;;23.15;53.49;100767.88;4956463;28;125107;-84
2023/07/12 00:21:24;;;;;;;5.68;2.08;;;;;;;23.16;54.20;100768.72;4930095;28;124561;-83
2023/07/12 00:23:53;;;;;;;3.38;2.20;;;;;;;23.15;54.22;100767.00;4941218;28;115353;-84
2023/07/12 00:26:25;;;;;;;3.30;2.13;;;;;;;23.15;54.77;100767.88;4958404;28;115794;-83
2023/07/12 00:28:55;;;;;;;5.72;2.92;;;;;;;23.11;54.72;100764.63;4941753;28;123478;-84
2023/07/12 00:31:23;;;;;;;4.28;2.58;;;;;;;23.09;54.88;100763.94;4937650;28;123908;-84
2023/07/12 00:33:51;;;;;;;8.95;2.85;;;;;;;23.06;55.18;100774.19;4955989;28;114315;-84
2023/07/12 00:36:23;;;;;;;5.07;2.80;;;;;;;23.02;55.30;100768.22;4956670;28;111817;-84
2023/07/12 00:38:51;;;;;;;4.32;2.80;;;;;;;22.99;55.45;100795.53;4953561;28;122776;-83
2023/07/12 00:41:52;;;;;;;5.05;2.67;;;;;;;22.98;55.38;100804.63;4947370;28;123023;-84
2023/07/12 00:44:32;;;;;;;4.15;2.42;;;;;;;22.94;55.49;100803.22;4943454;28;113278;-84
2023/07/12 00:46:59;;;;;;;6.03;2.50;;;;;;;22.94;55.65;100814.03;4955931;28;114359;-85
2023/07/12 00:49:26;;;;;;;5.22;2.65;;;;;;;22.91;55.69;100811.63;4928517;28;125997;-84
2023/07/12 00:52:13;;;;;;;5.57;3.13;;;;;;;22.88;55.83;100820.03;4951918;28;125045;-83
2023/07/12 00:55:03;;;;;;;3.83;2.55;;;;;;;22.84;55.68;100813.25;4953593;28;114227;-84
2023/07/12 00:57:31;;;;;;;3.72;2.65;;;;;;;22.80;55.60;100811.84;4951400;28;112133;-84
2023/07/12 01:00:10;;;;;;;4.13;2.63;;;;;;;22.77;55.80;100817.53;4940969;28;122370;-84
2023/07/12 01:02:44;;;;;;;4.30;2.80;;;;;;;22.72;55.84;100813.44;4940813;28;124950;-85
2023/07/12 01:05:13;;;;;;;4.93;2.50;;;;;;;22.69;55.89;100819.13;4940041;28;113725;-84
2023/07/12 01:07:43;;;;;;;5.38;2.58;;;;;;;22.67;55.84;100825.69;4966527;28;115112;-84
2023/07/12 01:10:10;;;;;;;6.15;2.92;;;;;;;22.63;55.65;100833.22;4939456;28;122426;-84
2023/07/12 01:12:38;;;;;;;5.63;2.72;;;;;;;22.60;55.73;100843.47;4940038;28;123060;-85
2023/07/12 01:15:09;;;;;;;4.25;2.55;;;;;;;22.55;55.91;100842.06;4924998;28;116068;-85
2023/07/12 01:17:36;;;;;;;5.90;2.90;;;;;;;22.50;55.67;100857.00;4950944;28;116735;-84
2023/07/12 01:20:04;;;;;;;6.50;3.00;;;;;;;22.45;55.49;100853.88;4938360;28;125064;-85
2023/07/12 01:22:34;;;;;;;4.85;2.50;;;;;;;22.38;55.62;100844.66;4952167;28;125330;-85
2023/07/12 01:25:04;;;;;;;4.22;2.05;;;;;;;22.30;55.22;100857.06;4937858;28;113747;-85
2023/07/12 01:27:31;;;;;;;4.00;2.20;;;;;;;22.22;55.12;100862.28;4956690;28;113531;-86
2023/07/12 01:29:59;;;;;;;6.35;2.20;;;;;;;22.14;54.99;100854.06;4949062;28;124944;-85
2023/07/12 01:32:28;;;;;;;4.70;1.95;;;;;;;22.07;54.84;100853.75;4956078;28;123057;-85
2023/07/12 01:34:56;;;;;;;6.05;2.00;;;;;;;22.01;54.57;100853.50;4937351;28;114458;-85
2023/07/12 01:37:23;;;;;;;4.22;1.88;;;;;;;21.93;54.72;100852.38;4936684;28;114291;-84
2023/07/12 01:39:53;;;;;;;6.10;1.80;;;;;;;21.85;54.82;100822.59;4939319;28;124281;-85
2023/07/12 01:42:20;;;;;;;4.15;1.98;;;;;;;21.80;54.78;100841.03;4948737;28;123905;-85
2023/07/12 01:44:47;;;;;;;5.93;1.90;;;;;;;21.75;54.80;100854.06;4935331;28;115806;-85
2023/07/12 01:47:14;;;;;;;5.00;1.95;;;;;;;21.72;54.71;100854.38;4948390;28;114488;-85
2023/07/12 01:49:41;;;;;;;5.00;2.00;;;;;;;21.70;54.78;100856.34;4937851;28;124857;-85
2023/07/12 01:52:09;;;;;;;5.47;2.08;;;;;;;21.69;54.92;100854.66;4938815;28;125192;-85
2023/07/12 01:54:36;;;;;;;11.05;2.20;;;;;;;21.66;54.86;100833.34;4954692;28;116428;-85
2023/07/12 01:57:04;;;;;;;6.72;2.20;;;;;;;21.65;54.95;100827.13;4939670;28;115847;-85
2023/07/12 01:59:31;;;;;;;5.03;1.98;;;;;;;21.60;54.92;100818.59;4933128;28;125749;-86
2023/07/12 02:01:58;;;;;;;4.72;2.03;;;;;;;21.58;54.96;100821.44;4937838;28;124769;-85
2023/07/12 02:04:25;;;;;;;6.07;1.95;;;;;;;21.54;54.93;100814.63;4935834;28;114448;-85
2023/07/12 02:06:52;;;;;;;4.97;1.80;;;;;;;21.54;55.03;100814.63;4930658;28;113717;-85
2023/07/12 02:09:20;;;;;;;5.07;2.10;;;;;;;21.53;55.05;100818.31;4949423;28;124495;-84
2023/07/12 02:11:47;;;;;;;6.45;2.38;;;;;;;21.50;55.09;100826.69;4947443;28;124102;-83
2023/07/12 02:14:14;;;;;;;8.32;2.28;;;;;;;21.49;55.28;100842.97;4950562;28;114524;-85
2023/07/12 02:16:41;;;;;;;6.45;2.00;;;;;;;21.48;55.47;100847.53;4939684;28;114495;-85
2023/07/12 02:19:08;;;;;;;7.70;2.30;;;;;;;21.47;55.45;100850.34;4955188;28;122218;-86
2023/07/12 02:21:35;;;;;;;4.25;1.95;;;;;;;21.46;55.53;100854.06;4955645;28;123533;-85
2023/07/12 02:24:03;;;;;;;5.32;2.00;;;;;;;21.45;55.82;100863.97;4962949;28;113032;-85
2023/07/12 02:26:35;;;;;;;4.97;2.28;;;;;;;21.46;55.89;100832.50;4970861;28;112349;-85
2023/07/12 02:29:03;;;;;;;9.15;2.55;;;;;;;21.45;56.09;100815.47;4974903;28;122445;-84
2023/07/12 02:31:31;;;;;;;5.63;2.05;;;;;;;21.46;56.18;100801.00;4972512;28;123437;-84
2023/07/12 02:33:58;;;;;;;7.00;2.47;;;;;;;21.45;56.00;100818.16;4968716;28;113482;-85
2023/07/12 02:36:26;;;;;;;6.00;2.35;;;;;;;21.43;56.05;100849.75;4950054;28;114006;-85
2023/07/12 02:38:53;;;;;;;6.82;2.72;;;;;;;21.40;56.20;100844.66;4960755;28;124142;-84
2023/07/12 02:41:20;;;;;;;6.57;2.45;;;;;;;21.36;56.18;100864.75;4970548;28;124189;-85
2023/07/12 02:43:47;;;;;;;5.18;2.40;;;;;;;21.33;56.49;100862.38;4966467;28;112588;-84
2023/07/12 02:46:15;;;;;;;6.15;2.63;;;;;;;21.31;56.41;100872.44;4963072;28;112114;-85
2023/07/12 02:48:43;;;;;;;6.25;2.90;;;;;;;21.29;56.45;100842.09;4962560;28;121955;-84
2023/07/12 02:51:10;;;;;;;9.70;2.85;;;;;;;21.24;56.55;100833.56;4942404;28;124889;-84
2023/07/12 02:53:38;;;;;;;5.88;2.92;;;;;;;21.19;56.68;100810.59;4943370;28;116135;-85
2023/07/12 02:56:08;;;;;;;10.88;2.80;;;;;;;21.17;56.86;100799.09;4957013;28;114238;-84
2023/07/12 02:58:36;;;;;;;8.88;2.90;;;;;;;21.17;56.87;100812.56;4958971;28;122812;-84
2023/07/12 03:01:03;;;;;;;9.60;2.83;;;;;;;21.17;57.10;100815.28;4956122;28;122725;-85
2023/07/12 03:03:30;;;;;;;6.72;2.83;;;;;;;21.16;57.18;100837.78;4954936;28;112656;-85
2023/07/12 03:06:07;;;;;;;7.78;3.00;;;;;;;21.13;57.25;100819.19;4945180;28;112537;-84
2023/07/12 03:08:34;;;;;;;5.13;2.72;;;;;;;21.12;57.32;100836.38;4943056;28;125595;-85
2023/07/12 03:11:03;;;;;;;7.05;2.97;;;;;;;21.10;57.15;100824.88;4958704;28;123206;-83
2023/07/12 03:13:31;;;;;;;7.30;3.35;;;;;;;21.08;57.46;100834.94;4956675;28;114348;-84
2023/07/12 03:15:58;;;;;;;4.80;2.95;;;;;;;21.06;57.44;100815.38;4955021;28;114585;-84
2023/07/12 03:18:26;;;;;;;5.45;2.90;;;;;;;21.03;57.53;100794.09;4933417;28;123344;-84
2023/07/12 03:20:59;;;;;;;4.97;2.70;;;;;;;21.02;57.65;100840.91;4935304;28;122918;-84
2023/07/12 03:23:28;;;;;;;6.07;3.05;;;;;;;21.00;57.71;100853.63;4951897;28;113952;-84
2023/07/12 03:25:55;;;;;;;8.15;3.60;;;;;;;20.97;57.80;100859.28;4953159;28;113511;-85
2023/07/12 03:28:22;;;;;;;5.47;3.28;;;;;;;20.94;57.83;100859.56;4936495;28;123556;-85
2023/07/12 03:31:16;;;;;;;8.10;3.20;;;;;;;20.89;57.79;100864.47;4949711;28;123715;-84
2023/07/12 03:33:48;;;;;;;5.88;3.58;;;;;;;20.85;58.04;100854.97;4947184;28;112700;-84
2023/07/12 03:36:15;;;;;;;6.57;3.33;;;;;;;20.83;58.00;100856.97;4948399;28;113933;-84
2023/07/12 03:38:42;;;;;;;7.05;3.20;;;;;;;20.82;58.14;100866.03;4944318;28;124231;-85
2023/07/12 03:41:11;;;;;;;7.50;3.53;;;;;;;20.80;58.14;100861.63;4932109;28;124443;-84
2023/07/12 03:43:38;;;;;;;5.38;3.00;;;;;;;20.78;58.32;100866.28;4932562;28;115998;-84
2023/07/12 03:46:05;;;;;;;5.55;3.22;;;;;;;20.76;58.30;100868.28;4952583;28;116262;-85
2023/07/12 03:48:33;;;;;;;7.15;2.75;;;;;;;20.76;58.61;100862.03;4929964;28;124906;-84
2023/07/12 03:51:00;;;;;;;5.35;3.10;;;;;;;20.75;58.28;100877.31;4927096;28;122754;-85
2023/07/12 03:53:28;;;;;;;5.90;3.20;;;;;;;20.72;58.24;100888.38;4966997;28;114209;-86
2023/07/12 03:55:58;;;;;;;5.63;2.65;;;;;;;20.71;58.42;100894.72;4932800;28;113138;-84
2023/07/12 03:58:28;;;;;;;4.07;2.65;;;;;;;20.68;58.43;100886.94;4919405;28;125839;-85
2023/07/12 04:00:56;;;;;;;5.95;2.47;;;;;;;20.67;58.49;100890.59;4946546;28;123029;-84
2023/07/12 04:03:23;;;;;;;5.38;2.83;;;;;;;20.68;58.58;100900.41;4950267;28;114289;-85
2023/07/12 04:05:51;;;;;;;5.20;2.45;;;;;;;20.68;58.86;100900.41;4933417;28;115607;-84
2023/07/12 04:08:19;;;;;;;7.28;2.65;;;;;;;20.69;58.80;100893.16;4948594;28;125276;-84
2023/07/12 04:10:51;;;;;;;4.22;2.30;;;;;;;20.68;59.00;100897.72;4934363;28;124897;-84
2023/07/12 04:13:19;;;;;;;4.28;2.55;;;;;;;20.68;58.69;100897.72;4951746;28;115220;-85
2023/07/12 04:15:47;;;;;;;5.28;2.53;;;;;;;20.66;58.84;100888.88;4952835;28;113899;-85
2023/07/12 04:18:14;;;;;;;5.53;2.35;;;;;;;20.66;58.92;100899.66;4951611;28;126109;-85
2023/07/12 04:20:41;;;;;;;4.13;2.60;;;;;;;20.66;58.85;100905.03;4950156;28;125577;-85
2023/07/12 04:23:09;;;;;;;6.57;3.75;;;;;;;20.66;58.85;100909.56;4953320;28;114103;-84
2023/07/12 04:25:36;;;;;;;6.18;3.10;;;;;;;20.62;58.93;100903.59;4954620;28;114159;-85
2023/07/12 04:28:04;;;;;;;5.20;4.00;;;;;;;20.60;58.94;100910.97;4936605;28;124008;-84
2023/07/12 04:30:32;;;;;;;9.57;4.88;;;;;;;20.58;58.74;100902.13;4935294;28;124196;-85
2023/07/12 04:33:01;;;;;;;6.70;5.13;;;;;;;20.54;58.94;100906.09;4931363;28;116282;-84
2023/07/12 04:35:28;;;;;;;8.43;5.47;;;;;;;20.53;58.80;100904.38;4953821;28;114903;-84
2023/07/12 04:37:55;;;;;;;8.02;5.53;;;;;;;20.51;58.79;100914.41;4952693;28;125566;-84
2023/07/12 04:40:23;;;;;;;9.00;5.63;;;;;;;20.49;58.83;100919.06;4950035;28;124736;-85
2023/07/12 04:42:50;;;;;;;9.25;5.40;;;;;;;20.48;58.89;100912.00;4952428;28;114468;-85
2023/07/12 04:45:17;;;;;;;9.98;6.03;;;;;;;20.46;58.95;100913.97;4967990;28;114100;-85
2023/07/12 04:47:45;;;;;;;8.75;5.55;;;;;;;20.43;58.87;100910.53;4953337;28;125523;-85
2023/07/12 04:50:12;;;;;;;7.90;5.00;;;;;;;20.40;58.90;100910.81;4932254;28;123493;-84
2023/07/12 04:52:40;;;;;;;7.68;4.88;;;;;;;20.40;58.97;100918.03;4947025;28;113529;-85
2023/07/12 04:55:27;;;;;;;9.48;5.00;;;;;;;20.38;58.83;100918.16;4948786;28;114275;-85
2023/07/12 04:57:55;;;;;;;8.63;5.22;;;;;;;20.39;58.87;100919.84;4933469;28;125214;-85
2023/07/12 05:00:26;;;;;;;11.00;5.35;;;;;;;20.40;58.82;100924.25;4951972;28;125592;-84
2023/07/12 05:02:54;;;;;;;10.30;5.07;;;;;;;20.41;58.92;100925.09;4946126;28;112755;-85
2023/07/12 05:05:21;;;;;;;10.20;5.22;;;;;;;20.43;58.87;100934.75;4959448;28;115671;-84
2023/07/12 05:07:49;;;;;;;10.02;4.90;;;;;;;20.42;58.98;100924.13;4944574;28;126083;-85
2023/07/12 05:10:16;;;;;;;8.27;4.75;;;;;;;20.43;58.84;100932.06;4947782;28;125149;-85
2023/07/12 05:12:43;;;;;;;9.70;5.20;;;;;;;20.45;58.85;100929.25;4951993;28;114943;-85
2023/07/12 05:15:11;;;;;;;9.98;5.13;;;;;;;20.47;58.96;100926.41;4933627;28;113243;-84
2023/07/12 05:17:39;;;;;;;8.43;4.70;;;;;;;20.49;59.02;100929.84;4935310;28;125006;-85
2023/07/12 05:20:10;;;;;;;10.43;5.10;;;;;;;20.52;58.85;100934.97;4950925;28;122785;-85
2023/07/12 05:22:38;;;;;;;10.13;5.10;;;;;;;20.53;58.77;100937.53;4951747;28;115357;-85
2023/07/12 05:25:06;;;;;;;7.32;4.60;;;;;;;20.56;59.02;100931.03;4946743;28;116582;-85
2023/07/12 05:27:33;;;;;;;8.80;4.82;;;;;;;20.59;58.88;100946.91;4930571;28;123990;-84
2023/07/12 05:30:00;;;;;;;8.10;4.78;;;;;;;20.61;58.66;100944.97;4946281;28;125978;-85
2023/07/12 05:32:28;;;;;;;8.65;3.88;;;;;;;20.61;58.78;100950.34;4948441;28;115323;-84
2023/07/12 05:34:55;;;;;;;8.50;4.30;;;;;;;20.59;58.76;100949.59;4955740;28;113574;-86
2023/07/12 05:37:22;;;;;;;7.47;3.83;;;;;;;20.61;58.65;100950.34;4929606;28;125944;-85
2023/07/12 05:39:54;;;;;;;7.90;3.70;;;;;;;20.62;58.97;100957.44;4959923;28;123748;-85
2023/07/12 05:42:21;;;;;;;8.65;3.72;;;;;;;20.65;58.77;100950.94;4947931;28;115195;-86
2023/07/12 05:44:48;;;;;;;7.20;3.83;;;;;;;20.67;58.55;100954.34;4932770;28;114894;-85
2023/07/12 05:47:16;;;;;;;8.73;3.45;;;;;;;20.71;58.61;100951.25;4958439;28;125496;-84
2023/07/12 05:49:43;;;;;;;8.48;3.60;;;;;;;20.76;58.62;100953.56;4951383;28;124532;-84
2023/07/12 05:52:10;;;;;;;5.13;3.17;;;;;;;20.79;58.63;100956.84;4935463;28;115340;-84
2023/07/12 05:54:37;;;;;;;6.70;3.25;;;;;;;20.85;58.49;100968.03;4955140;28;114958;-85
2023/07/12 05:57:05;;;;;;;6.47;3.20;;;;;;;20.90;58.51;100965.81;4937469;28;124725;-85
2023/07/12 05:59:32;;;;;;;5.28;3.47;;;;;;;20.95;58.53;100961.75;4932931;28;124568;-85
2023/07/12 06:01:59;;;;;;;7.40;3.58;;;;;;;21.00;58.33;100961.31;4951641;28;113794;-85
2023/07/12 06:04:27;;;;;;;7.40;3.92;;;;;;;21.05;58.29;100958.25;4935452;28;113861;-85
2023/07/12 06:06:54;;;;;;;5.82;3.72;;;;;;;21.12;58.53;100960.25;4935292;28;126313;-84
2023/07/12 06:09:21;;;;;;;5.88;3.88;;;;;;;21.18;58.59;100973.19;4956174;28;123561;-85
2023/07/12 06:11:48;;;;;;;6.80;3.60;;;;;;;21.27;58.30;100968.00;4927900;28;115614;-84
2023/07/12 06:14:15;;;;;;;6.75;3.53;;;;;;;21.33;58.10;100962.06;4952583;28;114584;-84
2023/07/12 06:16:43;;;;;;;5.65;3.25;;;;;;;21.38;58.09;100966.03;4929484;28;124637;-85
2023/07/12 06:19:11;;;;;;;6.18;3.22;;;;;;;21.44;57.88;100974.56;4933219;28;125339;-86
2023/07/12 06:21:38;;;;;;;5.57;3.42;;;;;;;21.48;57.90;100968.78;4955088;28;113881;-85
2023/07/12 06:24:07;;;;;;;8.57;3.42;;;;;;;21.53;57.72;100985.41;4954488;28;114985;-85
2023/07/12 06:26:34;;;;;;;6.25;3.00;;;;;;;21.55;57.60;100978.03;4956294;28;124876;-84
2023/07/12 06:29:02;;;;;;;7.13;3.40;;;;;;;21.60;57.54;100990.25;4952785;28;122373;-83
2023/07/12 06:31:30;;;;;;;7.53;2.78;;;;;;;21.65;57.31;100993.41;4947064;28;114487;-85
2023/07/12 06:34:02;;;;;;;8.10;3.05;;;;;;;21.69;57.41;100994.81;4943686;28;114922;-85
2023/07/12 06:36:33;;;;;;;6.32;3.05;;;;;;;21.71;57.08;100991.00;4935224;28;123933;-85
2023/07/12 06:39:01;;;;;;;7.97;3.67;;;;;;;21.71;57.02;100992.84;4938704;28;123496;-84
2023/07/12 06:41:28;;;;;;;6.55;3.08;;;;;;;21.74;56.96;100992.56;4957648;28;115037;-85
2023/07/12 06:44:07;;;;;;;5.50;2.60;;;;;;;21.75;56.86;100994.25;4948528;28;113566;-87
2023/07/12 06:46:34;;;;;;;7.18;3.00;;;;;;;21.80;56.94;101008.19;4952119;28;126315;-87
2023/07/12 06:49:02;;;;;;;6.57;2.92;;;;;;;21.86;56.96;101007.63;4937757;28;125316;-89
2023/07/12 06:51:30;;;;;;;9.38;2.90;;;;;;;21.90;56.62;101025.22;4937573;28;115309;-87
2023/07/12 06:53:57;;;;;;;6.50;2.85;;;;;;;21.90;56.59;101025.22;4940384;28;113895;-87
2023/07/12 06:56:24;;;;;;;9.23;3.25;;;;;;;21.96;56.77;101024.69;4952459;28;125909;-88
2023/07/12 06:58:51;;;;;;;7.97;2.70;;;;;;;22.01;56.70;101026.13;4943722;28;125331;-87
2023/07/12 07:01:19;;;;;;;8.48;3.15;;;;;;;22.03;56.33;101030.38;4957718;28;114963;-86
2023/07/12 07:03:46;;;;;;;6.45;2.97;;;;;;;22.07;56.32;101025.56;4956750;28;115306;-86
2023/07/12 07:06:14;;;;;;;9.55;3.30;;;;;;;22.09;56.41;101028.97;4937243;28;123460;-86
2023/07/12 07:08:41;;;;;;;7.20;3.38;;;;;;;22.11;56.05;101035.06;4967057;28;124671;-86
2023/07/12 07:11:08;;;;;;;8.43;3.47;;;;;;;22.09;55.92;101040.59;4937860;28;116294;-86
2023/07/12 07:13:36;;;;;;;5.88;3.28;;;;;;;22.07;55.86;101047.97;4938871;28;114188;-86
2023/07/12 07:16:04;;;;;;;9.43;3.20;;;;;;;22.03;55.89;101043.03;4938170;28;124003;-86
2023/07/12 07:18:31;;;;;;;7.03;3.38;;;;;;;22.00;55.65;101043.28;4955092;28;124797;-86
2023/07/12 07:21:03;;;;;;;7.20;3.20;;;;;;;21.97;55.85;101042.56;4937539;28;115322;-87
2023/07/12 07:23:30;;;;;;;7.88;3.55;;;;;;;21.94;55.56;101048.25;4938255;28;113376;-87
2023/07/12 07:26:02;;;;;;;6.22;3.08;;;;;;;21.89;55.61;101050.50;4943245;28;124217;-86
2023/07/12 07:28:30;;;;;;;5.72;2.90;;;;;;;21.86;55.74;101050.78;4957847;28;124009;-85
2023/07/12 07:31:00;;;;;;;9.20;3.50;;;;;;;21.85;55.83;101059.88;4954630;28;114960;-88
2023/07/12 07:33:27;;;;;;;6.72;3.55;;;;;;;21.83;55.74;101061.84;4970203;28;113708;-86
2023/07/12 07:35:55;;;;;;;6.38;3.25;;;;;;;21.84;55.85;101068.94;4935874;28;125927;-81
2023/07/12 07:38:26;;;;;;;9.48;2.97;;;;;;;21.86;55.65;101066.94;4967042;28;124281;-81
2023/07/12 07:40:55;;;;;;;7.97;3.35;;;;;;;21.87;55.66;101063.28;4949718;28;113875;-81
2023/07/12 07:43:22;;;;;;;5.10;3.30;;;;;;;21.89;56.00;101066.69;4928237;28;114764;-81
2023/07/12 07:45:50;;;;;;;6.95;3.45;;;;;;;21.95;56.07;101065.28;4949747;28;124911;-83
2023/07/12 07:48:19;;;;;;;8.23;3.55;;;;;;;22.06;56.26;101065.19;4956967;28;123714;-83
2023/07/12 07:50:46;;;;;;;7.18;2.90;;;;;;;22.17;56.26;101065.06;4949319;28;115181;-83
2023/07/12 07:53:13;;;;;;;11.52;3.80;;;;;;;22.30;56.05;101064.81;4939929;28;115495;-82
2023/07/12 07:55:42;;;;;;;9.93;3.70;;;;;;;22.38;55.80;101072.22;4950877;28;124914;-82
2023/07/12 07:58:09;;;;;;;7.55;3.10;;;;;;;22.43;55.39;101082.59;4932664;28;125365;-82
2023/07/12 08:00:37;;;;;;;6.65;3.20;;;;;;;22.44;55.36;101076.22;4953229;28;113864;-81
2023/07/12 08:03:06;;;;;;;9.18;3.40;;;;;;;22.45;55.10;101077.88;4967140;28;114085;-84
2023/07/12 08:05:33;;;;;;;7.00;3.47;;;;;;;22.47;55.26;101084.00;4942058;28;123292;-83
2023/07/12 08:08:01;;;;;;;6.97;3.20;;;;;;;22.50;55.19;101079.19;4967959;28;124903;-84
2023/07/12 08:10:29;;;;;;;6.53;3.15;;;;;;;22.57;55.10;101082.19;4951789;28;115359;-81
2023/07/12 08:12:57;;;;;;;7.30;3.40;;;;;;;22.62;54.73;101085.31;4934054;28;114914;-81
2023/07/12 08:15:25;;;;;;;7.22;3.17;;;;;;;22.65;54.79;101079.59;4941661;28;125046;-83
2023/07/12 08:17:53;;;;;;;8.13;3.47;;;;;;;22.70;54.49;101090.00;4954581;28;122710;-82
2023/07/12 08:20:22;;;;;;;10.57;3.63;;;;;;;22.74;54.52;101089.56;4933673;28;115068;-82
2023/07/12 08:22:51;;;;;;;8.13;3.35;;;;;;;22.83;54.62;101092.38;4952438;28;113054;-81
2023/07/12 08:25:18;;;;;;;8.23;3.13;;;;;;;22.90;54.57;101080.03;4917434;28;124630;-81
2023/07/12 08:27:45;;;;;;;7.75;3.30;;;;;;;22.97;54.57;101089.25;4920614;28;125096;-81
2023/07/12 08:30:13;;;;;;;8.60;3.00;;;;;;;23.05;54.13;101091.28;4946641;28;114336;-81
2023/07/12 08:32:41;;;;;;;7.63;3.05;;;;;;;23.12;53.84;101093.25;4938230;28;115160;-83
2023/07/12 08:35:11;;;;;;;8.80;2.88;;;;;;;23.16;54.03;101092.97;4945888;28;125075;-82
2023/07/12 08:37:38;;;;;;;7.03;3.10;;;;;;;23.24;53.90;101095.78;4957315;28;126835;-81
2023/07/12 08:40:07;;;;;;;6.53;2.95;;;;;;;23.32;53.77;101098.63;4954767;28;117164;-80
2023/07/12 08:42:39;;;;;;;6.45;3.20;;;;;;;23.39;53.58;101094.31;4929926;28;115359;-81
2023/07/12 08:45:31;;;;;;;7.97;3.03;;;;;;;23.46;53.31;101095.44;4949092;28;123983;-81
2023/07/12 08:48:04;;;;;;;7.90;2.97;;;;;;;23.51;53.23;101098.56;4948612;28;124441;-81
2023/07/12 08:50:39;;;;;;;6.22;2.58;;;;;;;23.54;52.96;101104.69;4968341;28;114555;-81
2023/07/12 08:53:12;;;;;;;9.00;2.88;;;;;;;23.55;52.89;101109.09;4967856;28;115608;-80
2023/07/12 08:55:39;;;;;;;6.40;2.80;;;;;;;23.52;52.87;101105.66;4948251;28;123715;-80
2023/07/12 08:58:14;;;;;;;6.28;3.00;;;;;;;23.48;52.54;101106.97;4936497;28;123357;-81
2023/07/12 09:00:43;;;;;;;8.38;3.08;;;;;;;23.45;52.64;101104.56;4941440;28;113127;-80
2023/07/12 09:03:10;;;;;;;8.48;2.90;;;;;;;23.43;52.53;101103.88;4938032;28;114762;-81
2023/07/12 09:05:37;;;;;;;6.82;3.25;;;;;;;23.44;52.48;101110.13;4935545;28;122974;-81
2023/07/12 09:08:22;;;;;;;9.45;3.70;;;;;;;23.52;52.95;101115.63;4939491;28;123696;-81
2023/07/12 09:10:56;;;;;;;7.53;3.63;;;;;;;23.63;52.82;101114.59;4932103;28;114160;-81
2023/07/12 09:13:34;;;;;;;9.10;3.50;;;;;;;23.73;52.89;101118.13;4949438;28;114903;-81
2023/07/12 09:16:03;;;;;;;5.75;3.10;;;;;;;23.80;52.39;101113.84;4953895;28;125581;-81
2023/07/12 09:18:36;;;;;;;6.70;3.03;;;;;;;23.85;52.23;101116.97;4951859;28;124443;-80
2023/07/12 09:21:16;;;;;;;7.90;3.50;;;;;;;23.94;52.26;101106.25;4932695;28;115324;-80
2023/07/12 09:23:44;;;;;;;7.07;3.00;;;;;;;24.02;52.32;101111.78;4918442;28;115082;-80
2023/07/12 09:26:20;;;;;;;7.72;3.58;;;;;;;24.13;52.50;101108.88;4923130;28;126020;-81
2023/07/12 09:28:48;;;;;;;6.80;3.60;;;;;;;24.27;52.01;101113.75;4942913;28;123265;-81
2023/07/12 09:31:21;;;;;;;8.07;3.50;;;;;;;24.43;51.76;101106.81;4930395;28;115319;-80
2023/07/12 09:33:53;;;;;;;6.78;3.20;;;;;;;24.56;51.69;101099.19;4930725;28;116338;-81
2023/07/12 09:36:20;;;;;;;6.72;3.00;;;;;;;24.71;51.28;101101.34;4950216;28;123686;-81
2023/07/12 09:38:47;;;;;;;6.88;3.00;;;;;;;24.83;50.98;101098.25;4962229;28;123918;-81
2023/07/12 09:41:24;;;;;;;6.28;3.00;;;;;;;24.97;50.67;101102.25;4946421;28;115272;-80
2023/07/12 09:44:01;;;;;;;7.10;3.25;;;;;;;25.01;50.36;101098.22;4947865;28;112964;-80
2023/07/12 09:46:42;;;;;;;6.85;3.17;;;;;;;25.01;49.97;101092.81;4945821;28;124942;-81
2023/07/12 09:49:16;;;;;;;5.63;2.90;;;;;;;25.06;50.04;101085.06;4954316;28;121816;-80
2023/07/12 09:52:03;;;;;;;5.53;3.05;;;;;;;25.16;50.12;101092.25;4948127;28;114317;-81
2023/07/12 09:55:10;;;;;;;6.00;3.38;;;;;;;25.26;49.45;101090.34;4936136;28;113368;-81
2023/07/12 09:57:54;;;;;;;7.68;3.45;;;;;;;25.31;49.35;101093.38;4886341;28;125525;-81
2023/07/12 10:00:30;;;;;;;6.30;2.35;;;;;;;25.39;49.19;101089.88;4979366;28;126490;-81
2023/07/12 10:03:05;;;;;;;6.25;2.22;;;;;;;25.49;48.21;101084.38;4949141;28;114279;-81
2023/07/12 10:05:35;;;;;;;5.22;2.20;;;;;;;25.58;48.23;101088.81;4951741;28;115367;-81
2023/07/12 10:08:11;;;;;;;5.65;2.47;;;;;;;25.66;48.16;101078.00;4968415;28;123953;-80
2023/07/12 10:10:59;;;;;;;5.85;2.67;;;;;;;25.77;47.93;101075.00;4971512;28;124472;-80
2023/07/12 10:13:41;;;;;;;6.35;2.80;;;;;;;25.88;47.70;101089.28;4937689;28;116777;-80
2023/07/12 10:16:19;;;;;;;6.22;2.67;;;;;;;25.94;47.41;101084.09;4949713;28;115583;-81
2023/07/12 10:18:49;;;;;;;4.82;2.70;;;;;;;26.03;47.54;101077.69;4958814;28;123755;-80
2023/07/12 10:21:25;;;;;;;6.38;2.95;;;;;;;26.16;47.43;101079.94;4949761;28;125801;-82
2023/07/12 10:23:59;;;;;;;11.02;3.00;;;;;;;26.32;47.34;101086.41;4929465;28;116432;-80
2023/07/12 10:26:27;;;;;;;4.78;2.55;;;;;;;26.39;46.95;101079.28;4943900;28;115910;-80
2023/07/12 10:29:08;;;;;;;5.82;2.95;;;;;;;26.38;46.16;101085.75;4948151;28;125094;-80
2023/07/12 10:31:43;;;;;;;5.35;3.10;;;;;;;26.42;46.46;101092.53;4938358;28;123653;-81
2023/07/12 10:34:16;;;;;;;;;;;;;;;26.47;47.20;101084.75;4939109;28;115485;-81
2023/07/12 10:36:45;;;;;;;6.25;2.70;;;;;;;26.66;46.72;101099.91;4966530;28;115473;-81
2023/07/12 10:39:12;;;;;;;6.53;2.80;;;;;;;26.77;46.14;101096.03;4926869;28;125946;-81
2023/07/12 10:41:51;;;;;;;5.03;2.95;;;;;;;26.83;45.51;101089.91;4939718;28;123845;-81
2023/07/12 10:44:21;;;;;;;5.25;2.60;;;;;;;26.89;45.84;101089.22;4959398;28;113883;-82
2023/07/12 10:46:54;;;;;;;7.00;2.40;;;;;;;26.99;45.64;101089.91;4945640;28;114211;-82
2023/07/12 10:49:47;;;;;;;5.68;2.22;;;;;;;27.09;45.20;101099.75;4947307;28;125768;-80
2023/07/12 10:52:26;;;;;;;5.18;2.80;;;;;;;27.12;44.77;101099.38;4953306;28;124290;-81
2023/07/12 10:55:02;;;;;;;6.00;2.47;;;;;;;27.11;44.94;101093.13;4931834;28;113534;-80
2023/07/12 10:57:39;;;;;;;6.22;2.60;;;;;;;27.14;45.05;101091.91;4946958;28;113700;-81
2023/07/12 11:00:12;;;;;;;4.82;2.67;;;;;;;27.21;44.68;101092.94;4949628;28;127956;-82
2023/07/12 11:02:45;;;;;;;6.82;2.53;;;;;;;27.26;44.07;101096.00;4947178;28;123562;-81
2023/07/12 11:05:39;;;;;;;3.83;2.03;;;;;;;27.29;44.31;101090.22;4947415;28;116015;-82
2023/07/12 11:08:31;;;;;;;6.07;1.95;;;;;;;27.34;43.82;101104.16;4958525;28;113544;-82
2023/07/12 11:11:19;;;;;;;4.10;2.10;;;;;;;27.41;43.74;101103.44;4954331;28;122967;-81
2023/07/12 11:13:52;;;;;;;4.47;2.00;;;;;;;27.43;43.48;101098.72;4953088;28;125291;-83
2023/07/12 11:16:20;;;;;;;5.55;2.20;;;;;;;27.45;43.42;101092.06;4945665;28;116235;-82
2023/07/12 11:18:57;;;;;;;4.53;2.13;;;;;;;27.46;42.94;101085.59;4967997;28;115226;-82
2023/07/12 11:21:50;;;;;;;5.97;2.00;;;;;;;27.54;43.43;101092.91;4963889;28;124759;-81
2023/07/12 11:24:27;;;;;;;5.45;2.13;;;;;;;27.61;43.15;101083.00;4942226;28;124883;-81
2023/07/12 11:26:58;;;;;;;3.88;1.88;;;;;;;27.66;43.49;101086.03;4962807;28;114639;-81
2023/07/12 11:29:25;;;;;;;3.65;1.63;;;;;;;27.66;43.07;101086.03;4958301;28;114842;-81
2023/07/12 11:32:07;;;;;;;6.88;2.15;;;;;;;27.65;42.72;101087.09;4918751;28;125147;-81